Time;durP1;ratioP1;P1;durP2;ratioP2;P2;SDS_P1;SDS_P2;PMS_P1;PMS_P2;Temp;Humidity;BMP_temperature;BMP_pressure;BME280_temperature;BME280_humidity;BME280_pressure;Samples;Min_cycle;Max_cycle;Signal;HPM_P1;HPM_P2
2020/12/03 00:00:44;;;;;;;6.83;4.33;;;5.90;99.90;;;;;;5070173;28;20207;-70
2020/12/03 00:03:20;;;;;;;6.87;4.10;;;5.90;99.90;;;;;;5069480;28;20732;-70
2020/12/03 00:05:54;;;;;;;8.30;3.60;;;5.90;99.90;;;;;;5071016;28;20738;-70
2020/12/03 00:08:21;;;;;;;10.33;3.50;;;5.80;99.90;;;;;;5073834;28;20284;-71
2020/12/03 00:10:47;;;;;;;7.87;3.80;;;5.80;99.90;;;;;;5074052;28;20256;-71
2020/12/03 00:13:18;;;;;;;5.90;3.90;;;5.80;99.90;;;;;;5073728;28;20267;-70
2020/12/03 00:15:50;;;;;;;7.33;3.33;;;5.70;99.90;;;;;;5073811;28;20287;-71
2020/12/03 00:18:16;;;;;;;6.20;3.07;;;5.70;99.90;;;;;;5073452;28;20205;-71
2020/12/03 00:20:43;;;;;;;11.27;3.67;;;5.60;99.90;;;;;;5073704;28;20206;-71
2020/12/03 00:23:09;;;;;;;8.57;3.37;;;5.70;99.90;;;;;;5073643;28;20230;-71
2020/12/03 00:25:35;;;;;;;7.70;3.30;;;5.60;99.90;;;;;;5074116;28;20743;-70
2020/12/03 00:28:02;;;;;;;7.93;3.50;;;5.60;99.90;;;;;;5073986;28;20202;-72
2020/12/03 00:30:28;;;;;;;7.97;3.67;;;5.60;99.90;;;;;;5073042;28;20206;-74
2020/12/03 00:32:56;;;;;;;7.73;3.73;;;5.60;99.90;;;;;;5073604;28;20213;-72
2020/12/03 00:35:23;;;;;;;17.13;3.53;;;5.70;99.90;;;;;;5073213;28;20249;-74
2020/12/03 00:37:51;;;;;;;12.23;3.03;;;5.70;99.90;;;;;;5073797;28;20781;-71
2020/12/03 00:40:18;;;;;;;16.70;4.77;;;5.80;99.90;;;;;;5073053;28;20198;-71
2020/12/03 00:42:45;;;;;;;7.20;3.63;;;5.80;99.90;;;;;;5073281;28;20280;-69
2020/12/03 00:45:14;;;;;;;6.17;2.90;;;5.70;99.90;;;;;;5072577;28;20253;-71
2020/12/03 00:47:42;;;;;;;10.00;4.87;;;5.70;99.90;;;;;;5073154;28;20240;-70
2020/12/03 00:50:11;;;;;;;8.27;4.43;;;5.70;99.90;;;;;;5072975;28;20202;-70
2020/12/03 00:52:38;;;;;;;9.57;3.90;;;5.70;99.90;;;;;;5073469;28;20263;-70
2020/12/03 00:55:05;;;;;;;9.10;3.80;;;5.70;99.90;;;;;;5073440;28;20236;-70
2020/12/03 00:57:31;;;;;;;6.23;3.07;;;5.70;99.90;;;;;;5072773;28;20264;-70
2020/12/03 00:59:58;;;;;;;5.23;2.63;;;5.70;99.90;;;;;;5073107;28;20674;-69
2020/12/03 01:02:25;;;;;;;4.53;3.20;;;5.70;99.90;;;;;;5072479;28;20198;-70
2020/12/03 01:04:51;;;;;;;7.80;3.67;;;5.70;99.90;;;;;;5073326;28;20267;-71
2020/12/03 01:07:19;;;;;;;11.10;3.93;;;5.70;99.90;;;;;;5072735;28;20207;-72
2020/12/03 01:09:45;;;;;;;10.53;4.63;;;5.60;99.90;;;;;;5072798;28;20252;-69
2020/12/03 01:12:12;;;;;;;8.33;3.17;;;5.60;99.90;;;;;;5072468;28;20214;-70
2020/12/03 01:14:39;;;;;;;9.53;3.43;;;5.60;99.90;;;;;;5073147;28;20222;-73
2020/12/03 01:17:10;;;;;;;5.37;3.40;;;5.60;99.90;;;;;;5071521;28;20246;-71
2020/12/03 01:19:37;;;;;;;7.93;3.47;;;5.50;99.90;;;;;;5072687;28;20210;-71
2020/12/03 01:22:04;;;;;;;10.00;4.87;;;5.40;99.90;;;;;;5073036;28;20202;-70
2020/12/03 01:24:33;;;;;;;8.93;4.30;;;5.40;99.90;;;;;;5072527;28;20273;-70
2020/12/03 01:26:59;;;;;;;10.07;5.13;;;5.30;99.90;;;;;;5072434;28;20633;-73
2020/12/03 01:29:26;;;;;;;5.80;3.33;;;5.30;99.90;;;;;;5071991;28;20279;-69
2020/12/03 01:31:53;;;;;;;9.30;4.27;;;5.20;99.90;;;;;;5072417;28;20202;-71
2020/12/03 01:34:20;;;;;;;11.63;4.90;;;5.00;99.90;;;;;;5072199;28;20255;-71
2020/12/03 01:36:49;;;;;;;9.63;4.47;;;5.00;99.90;;;;;;5072308;28;20206;-73
2020/12/03 01:39:16;;;;;;;5.67;3.97;;;4.80;99.90;;;;;;5071999;28;20201;-70
2020/12/03 01:41:43;;;;;;;9.40;3.70;;;4.70;99.90;;;;;;5072414;28;20202;-70
2020/12/03 01:44:10;;;;;;;7.10;3.63;;;4.60;99.90;;;;;;5071876;28;20222;-74
2020/12/03 01:46:37;;;;;;;7.30;4.27;;;4.50;99.90;;;;;;5072362;28;20206;-72
2020/12/03 01:49:06;;;;;;;6.83;3.50;;;4.50;99.90;;;;;;5072354;28;20212;-70
2020/12/03 01:51:36;;;;;;;5.33;3.50;;;4.40;99.90;;;;;;5072752;28;20213;-71
2020/12/03 01:54:06;;;;;;;10.10;3.57;;;4.40;99.90;;;;;;5072096;28;20268;-71
2020/12/03 01:57:00;;;;;;;5.13;3.60;;;4.40;99.90;;;;;;5072338;28;20673;-71
2020/12/03 01:59:31;;;;;;;5.63;3.27;;;4.40;99.90;;;;;;5058743;28;20251;-71
2020/12/03 02:01:58;;;;;;;12.83;3.63;;;4.60;99.90;;;;;;5072012;28;20210;-69
2020/12/03 02:04:25;;;;;;;7.30;2.80;;;4.60;99.90;;;;;;5071526;28;20234;-69
2020/12/03 02:06:58;;;;;;;6.10;3.03;;;4.80;99.90;;;;;;5072053;28;20236;-70
2020/12/03 02:09:25;;;;;;;5.20;3.27;;;4.90;99.90;;;;;;5071370;28;20203;-68
2020/12/03 02:11:51;;;;;;;7.20;3.13;;;5.00;99.90;;;;;;5072051;28;20256;-69
2020/12/03 02:14:19;;;;;;;9.67;3.03;;;5.10;99.90;;;;;;5070864;28;20726;-69
2020/12/03 02:16:46;;;;;;;5.77;3.37;;;5.20;99.90;;;;;;5071688;28;20206;-69
2020/12/03 02:19:19;;;;;;;3.67;2.77;;;5.20;99.90;;;;;;5071259;28;20279;-69
2020/12/03 02:21:52;;;;;;;6.47;2.40;;;5.20;99.90;;;;;;5071406;28;20670;-69
2020/12/03 02:24:19;;;;;;;4.57;2.80;;;5.20;99.90;;;;;;5064952;28;20226;-70
2020/12/03 02:26:50;;;;;;;5.77;2.80;;;5.10;99.90;;;;;;5068644;28;20638;-71
2020/12/03 02:29:20;;;;;;;6.57;2.73;;;5.20;99.90;;;;;;5070225;28;20210;-73
2020/12/03 02:31:48;;;;;;;4.23;2.67;;;5.20;99.90;;;;;;5071384;28;20206;-71
2020/12/03 02:34:15;;;;;;;6.07;2.90;;;5.10;99.90;;;;;;5070913;28;20206;-69
2020/12/03 02:36:41;;;;;;;8.90;3.53;;;5.20;99.90;;;;;;5071256;28;20202;-71
2020/12/03 02:39:09;;;;;;;3.83;2.40;;;5.10;99.90;;;;;;5070928;28;20206;-69
2020/12/03 02:41:37;;;;;;;6.47;2.20;;;5.20;99.90;;;;;;5071324;28;20202;-75
2020/12/03 02:44:03;;;;;;;4.57;2.73;;;5.20;99.90;;;;;;5071075;28;20717;-72
2020/12/03 02:46:30;;;;;;;7.40;2.53;;;5.20;99.90;;;;;;5070762;28;20739;-72
2020/12/03 02:48:56;;;;;;;4.73;2.00;;;5.20;99.90;;;;;;5071351;28;20210;-71
2020/12/03 02:51:23;;;;;;;9.00;2.83;;;5.20;99.90;;;;;;5070825;28;20206;-70
2020/12/03 02:53:49;;;;;;;4.47;2.17;;;5.20;99.90;;;;;;5070847;28;20210;-70
2020/12/03 02:56:16;;;;;;;6.23;3.00;;;5.30;99.90;;;;;;5070346;28;20222;-70
2020/12/03 02:58:43;;;;;;;3.27;1.97;;;5.20;99.90;;;;;;5070231;28;20206;-71
2020/12/03 03:01:09;;;;;;;4.33;2.47;;;5.20;99.90;;;;;;5070654;28;20674;-71
2020/12/03 03:03:36;;;;;;;6.63;2.40;;;5.20;99.90;;;;;;5070587;28;20233;-70
2020/12/03 03:06:02;;;;;;;10.67;2.27;;;5.20;99.90;;;;;;5071252;28;20256;-70
2020/12/03 03:08:29;;;;;;;6.90;2.73;;;5.20;99.90;;;;;;5070545;28;20210;-69
2020/12/03 03:10:55;;;;;;;7.13;2.00;;;5.20;99.90;;;;;;5070587;28;20271;-72
2020/12/03 03:13:22;;;;;;;8.93;2.40;;;5.20;99.90;;;;;;5070100;28;20692;-71
2020/12/03 03:15:49;;;;;;;5.80;1.80;;;5.20;99.90;;;;;;5070376;28;20210;-71
2020/12/03 03:18:15;;;;;;;6.37;2.20;;;5.20;99.90;;;;;;5070280;28;20206;-71
2020/12/03 03:20:42;;;;;;;4.20;1.80;;;5.20;99.90;;;;;;5070315;28;20205;-71
2020/12/03 03:23:08;;;;;;;3.73;2.03;;;5.10;99.90;;;;;;5070319;28;20229;-70
2020/12/03 03:25:35;;;;;;;5.37;2.00;;;5.00;99.90;;;;;;5070870;28;20236;-70
2020/12/03 03:28:01;;;;;;;4.40;2.00;;;4.90;99.90;;;;;;5070701;28;20198;-69
2020/12/03 03:30:28;;;;;;;4.20;1.97;;;4.80;99.90;;;;;;5070078;28;20236;-69
2020/12/03 03:32:55;;;;;;;3.90;2.13;;;4.70;99.90;;;;;;5070164;28;20198;-69
2020/12/03 03:35:21;;;;;;;7.03;2.27;;;4.50;99.90;;;;;;5069965;28;20560;-69
2020/12/03 03:37:48;;;;;;;3.87;1.37;;;4.50;99.90;;;;;;5070185;28;20214;-69
2020/12/03 03:40:15;;;;;;;2.60;1.73;;;4.50;99.90;;;;;;5069246;28;20723;-69
2020/12/03 03:42:42;;;;;;;4.30;1.80;;;4.40;99.90;;;;;;5070089;28;20677;-70
2020/12/03 03:45:10;;;;;;;4.53;2.03;;;4.40;99.90;;;;;;5069800;28;20205;-72
2020/12/03 03:47:38;;;;;;;3.67;1.97;;;4.30;99.90;;;;;;5070490;28;20626;-70
2020/12/03 03:50:05;;;;;;;2.97;1.77;;;4.40;99.90;;;;;;5070484;28;20248;-71
2020/12/03 03:52:32;;;;;;;6.47;1.60;;;4.40;99.90;;;;;;5070189;28;20245;-69
2020/12/03 03:54:59;;;;;;;6.10;1.30;;;4.40;99.90;;;;;;5069907;28;20213;-69
2020/12/03 03:57:25;;;;;;;2.73;1.30;;;4.30;99.90;;;;;;5069869;28;20307;-71
2020/12/03 03:59:52;;;;;;;2.70;1.37;;;4.40;99.90;;;;;;5070289;28;20210;-70
2020/12/03 04:02:20;;;;;;;5.50;1.53;;;4.40;99.90;;;;;;5070073;28;20276;-69
2020/12/03 04:04:48;;;;;;;1.80;0.87;;;4.40;99.90;;;;;;5069965;28;20655;-70
2020/12/03 04:07:15;;;;;;;2.23;1.17;;;4.40;99.90;;;;;;5069613;28;20259;-70
2020/12/03 04:09:42;;;;;;;3.47;1.40;;;4.50;99.90;;;;;;5070060;28;20213;-69
2020/12/03 04:12:09;;;;;;;8.70;1.60;;;4.60;99.90;;;;;;5069625;28;20198;-70
2020/12/03 04:14:36;;;;;;;2.53;1.30;;;4.60;99.90;;;;;;5070390;28;20214;-70
2020/12/03 04:17:02;;;;;;;1.90;1.00;;;4.70;99.90;;;;;;5070358;28;20206;-70
2020/12/03 04:19:29;;;;;;;3.83;1.17;;;4.70;99.90;;;;;;5069444;28;20731;-70
2020/12/03 04:21:56;;;;;;;3.53;1.63;;;4.70;99.90;;;;;;5069597;28;20735;-70
2020/12/03 04:24:23;;;;;;;1.80;1.00;;;4.80;99.90;;;;;;5069693;28;20295;-71
2020/12/03 04:26:49;;;;;;;4.27;1.00;;;4.80;99.90;;;;;;5070002;28;20669;-71
2020/12/03 04:29:15;;;;;;;2.33;1.57;;;4.80;99.90;;;;;;5069167;28;20318;-71
2020/12/03 04:31:42;;;;;;;4.03;1.53;;;4.90;99.90;;;;;;5069826;28;20207;-70
2020/12/03 04:34:09;;;;;;;1.47;1.10;;;4.90;99.90;;;;;;5069446;28;20268;-72
2020/12/03 04:36:36;;;;;;;2.60;0.97;;;4.90;99.90;;;;;;5069651;28;20210;-70
2020/12/03 04:39:04;;;;;;;1.93;1.13;;;4.90;99.90;;;;;;5069815;28;20208;-70
2020/12/03 04:41:31;;;;;;;4.67;1.23;;;4.90;99.90;;;;;;5069433;28;20767;-72
2020/12/03 04:44:04;;;;;;;3.93;1.40;;;4.80;99.90;;;;;;5069794;28;20717;-70
2020/12/03 04:46:36;;;;;;;6.10;1.27;;;4.80;99.90;;;;;;5069444;28;20209;-70
2020/12/03 04:49:24;;;;;;;1.83;1.10;;;4.70;99.90;;;;;;5069868;28;20295;-70
2020/12/03 04:52:23;;;;;;;8.30;3.23;;;4.70;99.90;;;;;;5070806;28;20252;-69
2020/12/03 04:55:04;;;;;;;7.30;1.70;;;4.70;99.90;;;;;;5073196;28;20214;-69
2020/12/03 04:57:37;;;;;;;2.03;1.13;;;4.80;99.90;;;;;;5073483;28;20214;-69
2020/12/03 05:00:12;;;;;;;2.93;1.97;;;4.80;99.90;;;;;;5073502;28;20202;-69
2020/12/03 05:03:01;;;;;;;3.47;1.73;;;4.80;99.90;;;;;;5073296;28;20202;-69
2020/12/03 05:05:38;;;;;;;4.20;1.33;;;4.90;99.90;;;;;;5072644;28;20275;-69
2020/12/03 05:08:09;;;;;;;3.93;1.13;;;4.90;99.90;;;;;;5073003;28;20671;-70
2020/12/03 05:10:43;;;;;;;6.07;2.17;;;4.90;99.90;;;;;;5072920;28;20210;-70
2020/12/03 05:13:20;;;;;;;3.33;1.27;;;5.00;99.90;;;;;;5072721;28;20275;-72
2020/12/03 05:15:50;;;;;;;2.23;1.20;;;5.10;99.90;;;;;;5072652;28;20271;-70
2020/12/03 05:18:34;;;;;;;1.97;1.40;;;5.10;99.90;;;;;;5072663;28;20247;-69
2020/12/03 05:21:02;;;;;;;5.07;1.80;;;5.10;99.90;;;;;;5072911;28;20206;-70
2020/12/03 05:23:32;;;;;;;4.80;1.73;;;5.10;99.90;;;;;;5072026;28;20244;-69
2020/12/03 05:26:01;;;;;;;1.97;1.87;;;5.10;99.90;;;;;;5072386;28;20202;-70
2020/12/03 05:28:37;;;;;;;1.97;1.20;;;5.20;99.90;;;;;;5072082;28;20232;-70
2020/12/03 05:31:16;;;;;;;1.30;1.17;;;5.10;99.90;;;;;;5072913;28;20580;-69
2020/12/03 05:33:44;;;;;;;2.90;1.67;;;5.10;99.90;;;;;;5072254;28;20677;-69
2020/12/03 05:36:22;;;;;;;2.07;1.40;;;5.00;99.90;;;;;;5070656;28;20256;-70
2020/12/03 05:38:49;;;;;;;2.93;1.40;;;5.00;99.90;;;;;;5061839;28;20209;-70
2020/12/03 05:41:18;;;;;;;2.10;1.60;;;5.00;99.90;;;;;;5071757;28;20564;-71
2020/12/03 05:43:44;;;;;;;3.77;1.43;;;5.00;99.90;;;;;;5061556;28;20234;-70
2020/12/03 05:46:15;;;;;;;6.73;0.93;;;5.10;99.90;;;;;;5072024;28;20210;-70
2020/12/03 05:48:41;;;;;;;4.30;1.20;;;5.10;99.90;;;;;;5072312;28;20206;-70
2020/12/03 05:51:23;;;;;;;4.67;1.40;;;5.20;99.90;;;;;;5071983;28;20275;-70
2020/12/03 05:53:54;;;;;;;3.37;1.23;;;5.20;99.90;;;;;;5070202;28;20553;-69
2020/12/03 05:56:23;;;;;;;3.57;1.60;;;5.20;99.90;;;;;;5065947;28;20210;-70
2020/12/03 05:58:50;;;;;;;2.83;0.90;;;5.30;99.90;;;;;;5072036;28;20206;-70
2020/12/03 06:01:19;;;;;;;1.83;1.30;;;5.30;99.90;;;;;;5071770;28;20205;-69
2020/12/03 06:04:06;;;;;;;2.83;1.97;;;5.30;99.90;;;;;;5071264;28;20638;-69
2020/12/03 06:07:09;;;;;;;6.53;5.93;;;5.30;99.90;;;;;;5072143;28;20202;-69
2020/12/03 06:10:03;;;;;;;12.37;6.97;;;5.30;99.90;;;;;;5072366;28;20202;-69
2020/12/03 06:12:41;;;;;;;4.00;2.30;;;5.20;99.90;;;;;;5058351;28;20640;-70
2020/12/03 06:15:19;;;;;;;3.67;1.97;;;5.20;99.90;;;;;;5071616;28;20240;-70
2020/12/03 06:18:05;;;;;;;2.03;1.57;;;5.10;99.90;;;;;;5071929;28;20255;-69
2020/12/03 06:20:53;;;;;;;6.20;1.87;;;5.10;99.90;;;;;;5071272;28;20237;-70
2020/12/03 06:23:37;;;;;;;4.47;2.90;;;5.10;99.90;;;;;;5071301;28;20329;-70
2020/12/03 06:26:13;;;;;;;3.23;2.23;;;5.10;99.90;;;;;;5072075;28;20232;-69
2020/12/03 06:28:57;;;;;;;3.70;1.83;;;5.10;99.90;;;;;;5071706;28;20327;-70
2020/12/03 06:31:28;;;;;;;4.93;2.53;;;5.10;99.90;;;;;;5059587;28;20206;-69
2020/12/03 06:34:00;;;;;;;5.67;3.43;;;5.00;99.90;;;;;;5071389;28;20206;-70
2020/12/03 06:36:40;;;;;;;2.40;1.70;;;5.00;99.90;;;;;;5070823;28;20206;-71
2020/12/03 06:39:25;;;;;;;10.07;1.93;;;5.00;99.90;;;;;;5071313;28;20321;-71
2020/12/03 06:41:57;;;;;;;3.67;2.43;;;5.00;99.90;;;;;;5070926;28;20685;-71
2020/12/03 06:44:34;;;;;;;4.80;2.30;;;5.10;99.90;;;;;;5070591;28;20218;-70
2020/12/03 06:47:33;;;;;;;4.40;2.30;;;5.10;99.90;;;;;;5058291;28;20209;-71
2020/12/03 06:50:30;;;;;;;5.47;3.30;;;5.20;99.90;;;;;;5071046;28;20198;-69
2020/12/03 06:53:12;;;;;;;4.33;3.37;;;5.10;99.90;;;;;;5071335;28;20210;-69
2020/12/03 06:55:59;;;;;;;5.40;3.10;;;5.20;99.90;;;;;;5071252;28;20275;-71
2020/12/03 06:59:07;;;;;;;7.43;3.13;;;5.10;99.90;;;;;;5070566;28;20252;-70
2020/12/03 07:02:13;;;;;;;4.97;2.97;;;5.20;99.90;;;;;;5037812;28;20218;-70
2020/12/03 07:05:13;;;;;;;5.63;2.77;;;5.20;99.90;;;;;;5053079;28;20238;-71
2020/12/03 07:08:04;;;;;;;8.07;3.23;;;5.20;99.90;;;;;;5060060;28;20272;-70
2020/12/03 07:10:59;;;;;;;6.33;3.10;;;5.20;99.90;;;;;;5070114;28;20252;-70
2020/12/03 07:14:11;;;;;;;4.57;3.03;;;5.20;99.90;;;;;;5070160;28;20577;-71
2020/12/03 07:17:14;;;;;;;7.97;2.20;;;5.20;99.90;;;;;;5069753;28;20680;-71
2020/12/03 07:20:02;;;;;;;8.73;2.67;;;5.20;99.90;;;;;;5027929;28;20584;-70
2020/12/03 07:22:33;;;;;;;4.87;2.27;;;5.20;99.90;;;;;;5069151;28;20202;-70
2020/12/03 07:25:02;;;;;;;6.70;2.57;;;5.20;99.90;;;;;;5070814;28;20251;-70
2020/12/03 07:27:55;;;;;;;4.87;3.00;;;5.20;99.90;;;;;;5070072;28;20210;-69
2020/12/03 07:30:42;;;;;;;6.93;3.10;;;5.10;99.90;;;;;;5068669;28;20243;-69
2020/12/03 07:33:17;;;;;;;5.27;3.67;;;5.00;99.90;;;;;;5058844;28;20198;-69
2020/12/03 07:35:52;;;;;;;4.60;3.10;;;5.00;99.90;;;;;;5070642;28;20202;-69
2020/12/03 07:38:30;;;;;;;9.17;4.13;;;4.90;99.90;;;;;;5070135;28;20198;-69
2020/12/03 07:40:58;;;;;;;5.60;2.93;;;5.00;99.90;;;;;;5070693;28;20251;-71
2020/12/03 07:43:28;;;;;;;6.33;3.37;;;5.10;99.90;;;;;;5069627;28;20283;-69
2020/12/03 07:45:55;;;;;;;8.77;3.70;;;5.30;99.90;;;;;;5063258;28;20217;-69
2020/12/03 07:48:41;;;;;;;12.07;4.77;;;5.40;99.90;;;;;;5064878;28;20283;-69
2020/12/03 07:51:14;;;;;;;7.03;4.40;;;5.70;99.90;;;;;;5061404;28;20616;-69
2020/12/03 07:53:41;;;;;;;8.00;4.33;;;6.10;99.90;;;;;;5068820;28;20305;-70
2020/12/03 07:56:31;;;;;;;9.50;5.37;;;6.30;99.90;;;;;;5069535;28;20266;-69
2020/12/03 07:59:37;;;;;;;4.60;3.23;;;6.50;99.90;;;;;;5054557;28;20247;-70
2020/12/03 08:02:24;;;;;;;6.40;3.03;;;6.30;99.90;;;;;;5070267;28;20271;-72
2020/12/03 08:04:51;;;;;;;6.03;4.00;;;6.40;99.90;;;;;;5070084;28;20238;-70
2020/12/03 08:07:30;;;;;;;6.17;3.53;;;6.40;99.90;;;;;;5069804;28;20202;-73
2020/12/03 08:09:57;;;;;;;6.10;3.30;;;6.40;99.90;;;;;;5064018;28;20230;-69
2020/12/03 08:12:26;;;;;;;10.57;4.57;;;6.30;99.90;;;;;;5068530;28;20233;-69
2020/12/03 08:14:54;;;;;;;7.23;3.23;;;6.40;99.90;;;;;;5065369;28;20289;-69
2020/12/03 08:17:55;;;;;;;4.60;3.10;;;6.40;99.90;;;;;;5068493;28;20202;-72
2020/12/03 08:20:24;;;;;;;7.33;3.93;;;6.40;99.90;;;;;;5069597;28;20229;-70
2020/12/03 08:22:54;;;;;;;5.23;3.07;;;6.50;99.90;;;;;;5065419;28;20213;-71
2020/12/03 08:25:25;;;;;;;12.30;3.87;;;6.50;99.90;;;;;;5067175;28;20237;-72
2020/12/03 08:27:58;;;;;;;6.30;3.40;;;6.70;99.90;;;;;;5072579;28;20230;-71
2020/12/03 08:30:37;;;;;;;5.63;3.10;;;6.90;99.90;;;;;;5073280;28;20202;-69
2020/12/03 08:33:12;;;;;;;6.20;2.50;;;6.90;99.90;;;;;;5068597;28;20212;-76
2020/12/03 08:35:48;;;;;;;9.50;2.50;;;7.00;99.90;;;;;;5072144;28;20209;-68
2020/12/03 08:38:15;;;;;;;7.43;2.90;;;7.10;99.90;;;;;;5060829;28;20252;-71
2020/12/03 08:40:41;;;;;;;7.73;3.03;;;7.20;99.90;;;;;;5072924;28;20677;-71
2020/12/03 08:43:10;;;;;;;7.30;3.23;;;7.30;99.90;;;;;;5067267;28;20202;-68
2020/12/03 08:45:46;;;;;;;7.53;2.87;;;7.30;99.90;;;;;;5072717;28;20723;-71
2020/12/03 08:48:16;;;;;;;5.53;3.60;;;7.40;99.90;;;;;;5065079;28;20700;-70
2020/12/03 08:50:42;;;;;;;9.77;4.60;;;7.30;99.90;;;;;;5067653;28;20300;-69
2020/12/03 08:53:10;;;;;;;10.13;4.53;;;7.40;99.90;;;;;;5062985;28;20210;-68
2020/12/03 08:55:41;;;;;;;7.30;4.37;;;7.50;99.90;;;;;;5069755;28;20591;-69
2020/12/03 08:58:09;;;;;;;12.60;6.10;;;7.70;99.90;;;;;;5070608;28;20198;-69
2020/12/03 09:00:41;;;;;;;16.07;5.07;;;7.70;99.90;;;;;;5068944;28;20210;-68
2020/12/03 09:03:12;;;;;;;12.13;7.53;;;7.60;99.90;;;;;;5072531;28;20198;-69
2020/12/03 09:05:42;;;;;;;7.27;4.03;;;7.70;99.90;;;;;;5068166;28;20220;-71
2020/12/03 09:08:11;;;;;;;9.00;5.33;;;7.60;99.90;;;;;;5072276;28;20206;-68
2020/12/03 09:10:38;;;;;;;8.50;4.97;;;8.20;99.90;;;;;;5064727;28;20739;-68
2020/12/03 09:13:05;;;;;;;7.37;4.00;;;8.60;99.90;;;;;;5073191;28;20206;-68
2020/12/03 09:15:33;;;;;;;10.30;5.47;;;9.60;99.90;;;;;;5072021;28;20586;-68
2020/12/03 09:18:01;;;;;;;9.10;3.73;;;10.70;99.90;;;;;;5072659;28;20210;-68
2020/12/03 09:20:27;;;;;;;6.20;4.00;;;12.70;99.90;;;;;;5070252;28;20582;-68
2020/12/03 09:22:54;;;;;;;7.73;4.43;;;10.60;99.90;;;;;;5072575;28;20638;-69
2020/12/03 09:25:21;;;;;;;8.93;3.97;;;9.30;99.90;;;;;;5072132;28;20291;-71
2020/12/03 09:27:49;;;;;;;7.73;4.40;;;11.60;99.90;;;;;;5065913;28;20234;-68
2020/12/03 09:30:19;;;;;;;6.27;3.10;;;12.30;99.90;;;;;;5067176;28;20572;-71
2020/12/03 09:32:49;;;;;;;8.10;4.00;;;12.40;99.90;;;;;;5067160;28;20256;-69
2020/12/03 09:35:17;;;;;;;10.20;3.83;;;13.00;99.90;;;;;;5072292;28;20260;-69
2020/12/03 09:37:43;;;;;;;8.70;3.27;;;14.40;99.90;;;;;;5071782;28;20252;-70
2020/12/03 09:40:12;;;;;;;7.77;3.70;;;14.90;99.90;;;;;;5066318;28;20233;-70
2020/12/03 09:42:45;;;;;;;9.55;4.30;;;15.70;99.90;;;;;;5074756;28;20206;-71
2020/12/03 09:45:16;;;;;;;6.38;2.97;;;14.50;99.90;;;;;;5053895;28;20261;-70
2020/12/03 09:47:44;;;;;;;9.02;3.92;;;17.40;99.90;;;;;;5067331;28;20206;-70
2020/12/03 09:50:13;;;;;;;7.55;3.63;;;18.70;99.90;;;;;;5071361;28;20206;-71
2020/12/03 09:52:41;;;;;;;8.63;3.55;;;19.30;99.90;;;;;;5069078;28;20221;-72
2020/12/03 09:55:09;;;;;;;4.72;3.15;;;19.20;99.90;;;;;;5055293;28;20211;-71
2020/12/03 09:57:37;;;;;;;6.95;2.95;;;19.30;99.90;;;;;;5063521;28;20202;-70
2020/12/03 10:00:07;;;;;;;5.20;3.20;;;19.10;99.90;;;;;;5066568;28;20673;-70
2020/12/03 10:03:16;;;;;;;7.97;3.33;;;18.10;99.90;;;;;;5071301;28;20198;-71
2020/12/03 10:05:55;;;;;;;5.78;3.83;;;14.70;99.90;;;;;;5060433;28;20274;-71
2020/12/03 10:08:43;;;;;;;9.40;3.45;;;13.60;99.90;;;;;;5068858;28;20206;-69
2020/12/03 10:11:21;;;;;;;6.72;3.25;;;12.30;99.90;;;;;;5070009;28;20202;-69
2020/12/03 10:14:11;;;;;;;5.45;3.53;;;11.30;99.90;;;;;;5071257;28;20217;-69
2020/12/03 10:16:40;;;;;;;7.43;3.58;;;11.10;99.90;;;;;;5070598;28;20738;-71
2020/12/03 10:19:11;;;;;;;7.03;3.63;;;11.00;99.90;;;;;;5064958;28;20202;-71
2020/12/03 10:21:42;;;;;;;10.57;3.63;;;10.90;99.90;;;;;;5063358;28;20301;-70
2020/12/03 10:24:12;;;;;;;15.90;4.03;;;10.90;99.90;;;;;;5067785;28;20758;-70
2020/12/03 10:26:49;;;;;;;5.33;2.30;;;10.80;99.90;;;;;;5071468;28;20238;-70
2020/12/03 10:29:42;;;;;;;3.67;2.40;;;10.70;99.90;;;;;;5070910;28;20202;-71
2020/12/03 10:32:11;;;;;;;2.37;2.17;;;10.40;99.90;;;;;;5071064;28;20206;-70
2020/12/03 10:34:42;;;;;;;4.33;2.83;;;10.20;99.90;;;;;;5071287;28;20288;-70
2020/12/03 10:37:19;;;;;;;2.77;2.10;;;10.10;99.90;;;;;;5071175;28;20207;-71
2020/12/03 10:39:51;;;;;;;5.07;3.17;;;10.50;99.90;;;;;;5071174;28;20213;-70
2020/12/03 10:42:22;;;;;;;5.47;2.97;;;10.80;99.90;;;;;;5070879;28;20206;-70
2020/12/03 10:44:52;;;;;;;3.40;2.73;;;11.00;99.90;;;;;;5058569;28;20623;-70
2020/12/03 10:47:22;;;;;;;9.50;2.37;;;11.40;99.90;;;;;;5062662;28;20276;-68
2020/12/03 10:49:50;;;;;;;5.13;3.33;;;11.50;99.90;;;;;;5065834;28;20251;-69
2020/12/03 10:52:25;;;;;;;3.50;2.27;;;12.10;99.90;;;;;;5069082;28;20579;-69
2020/12/03 10:54:58;;;;;;;6.30;2.40;;;12.70;99.90;;;;;;5065895;28;20734;-72
2020/12/03 10:57:27;;;;;;;4.10;1.50;;;12.60;99.90;;;;;;5070466;28;20198;-72
2020/12/03 10:59:56;;;;;;;3.67;2.23;;;12.70;99.90;;;;;;5060457;28;20238;-71
2020/12/03 11:02:30;;;;;;;6.40;2.80;;;12.70;99.90;;;;;;5070388;28;20295;-69
2020/12/03 11:04:58;;;;;;;5.70;2.87;;;12.00;99.90;;;;;;5070458;28;20222;-71
2020/12/03 11:07:24;;;;;;;4.13;2.70;;;11.50;99.90;;;;;;5070428;28;20252;-70
2020/12/03 11:09:54;;;;;;;9.73;2.73;;;12.00;99.90;;;;;;5070275;28;20680;-71
2020/12/03 11:12:21;;;;;;;4.93;2.60;;;11.90;99.90;;;;;;5064873;28;20202;-71
2020/12/03 11:14:48;;;;;;;4.23;2.43;;;12.00;99.90;;;;;;5054627;28;20438;-71
2020/12/03 11:17:47;;;;;;;4.17;2.20;;;12.00;99.90;;;;;;5062585;28;20561;-70
2020/12/03 11:20:16;;;;;;;3.57;2.47;;;12.10;99.90;;;;;;5062170;28;20202;-71
2020/12/03 11:23:08;;;;;;;5.40;2.90;;;12.40;99.90;;;;;;5068746;28;20209;-71
2020/12/03 11:25:36;;;;;;;5.20;3.97;;;12.20;99.90;;;;;;5063428;28;20253;-72
2020/12/03 11:28:16;;;;;;;3.43;2.50;;;11.60;99.90;;;;;;5070431;28;20293;-71
2020/12/03 11:30:55;;;;;;;6.13;2.10;;;11.40;99.90;;;;;;5070319;28;20206;-72
2020/12/03 11:33:25;;;;;;;3.97;1.70;;;11.80;99.90;;;;;;5060487;28;20279;-71
2020/12/03 11:36:00;;;;;;;4.13;2.00;;;12.00;99.90;;;;;;5064659;28;20616;-70
2020/12/03 11:38:31;;;;;;;5.90;2.97;;;11.90;99.90;;;;;;5069809;28;20209;-72
2020/12/03 11:40:59;;;;;;;4.10;2.87;;;12.10;99.90;;;;;;5058702;28;20245;-70
2020/12/03 11:43:41;;;;;;;7.70;2.50;;;12.20;99.90;;;;;;5068921;28;20213;-70
2020/12/03 11:46:38;;;;;;;3.37;1.63;;;12.10;99.90;;;;;;5064135;28;20289;-70
2020/12/03 11:49:05;;;;;;;3.57;2.27;;;12.20;99.90;;;;;;5068205;28;20227;-71
2020/12/03 11:51:33;;;;;;;4.10;1.77;;;12.20;99.90;;;;;;5070203;28;20656;-71
2020/12/03 11:54:01;;;;;;;2.63;1.53;;;12.50;99.90;;;;;;5069855;28;20209;-71
2020/12/03 11:56:28;;;;;;;4.27;2.53;;;12.70;99.90;;;;;;5069670;28;20222;-70
2020/12/03 11:59:17;;;;;;;2.90;1.50;;;12.60;99.90;;;;;;5070367;28;20214;-71
2020/12/03 12:01:53;;;;;;;2.97;1.40;;;12.40;99.90;;;;;;5066797;28;20211;-72
2020/12/03 12:04:25;;;;;;;3.77;2.33;;;12.30;99.90;;;;;;5070432;28;20283;-71
2020/12/03 12:07:13;;;;;;;4.97;2.30;;;12.20;99.90;;;;;;5065454;28;20203;-69
2020/12/03 12:09:48;;;;;;;2.50;1.80;;;12.00;99.90;;;;;;5058107;28;20211;-70
2020/12/03 12:12:15;;;;;;;3.27;1.90;;;12.20;99.90;;;;;;5072345;28;20672;-71
2020/12/03 12:14:41;;;;;;;3.87;1.77;;;12.10;99.90;;;;;;5073861;28;20640;-69
2020/12/03 12:17:08;;;;;;;2.73;1.53;;;12.10;99.90;;;;;;5073654;28;20297;-69
2020/12/03 12:19:37;;;;;;;2.37;1.30;;;12.10;99.90;;;;;;5074021;28;20738;-70
2020/12/03 12:22:05;;;;;;;2.57;1.50;;;12.10;99.90;;;;;;5074104;28;20580;-71
2020/12/03 12:24:31;;;;;;;3.73;1.93;;;12.10;99.90;;;;;;5069762;28;20262;-69
2020/12/03 12:26:58;;;;;;;6.40;2.30;;;12.30;99.90;;;;;;5073998;28;20335;-70
2020/12/03 12:29:25;;;;;;;2.87;1.27;;;12.40;99.90;;;;;;5062303;28;20275;-70
2020/12/03 12:31:52;;;;;;;2.00;1.40;;;12.50;99.90;;;;;;5062236;28;20210;-70
2020/12/03 12:34:18;;;;;;;2.60;1.50;;;12.50;99.90;;;;;;5063249;28;20210;-69
2020/12/03 12:36:46;;;;;;;3.28;1.70;;;12.50;99.90;;;;;;5062156;28;20379;-69
2020/12/03 12:39:14;;;;;;;1.95;1.30;;;12.50;99.90;;;;;;5066369;28;20210;-69
2020/12/03 12:41:40;;;;;;;3.17;1.13;;;12.50;99.90;;;;;;5069696;28;20217;-70
2020/12/03 12:44:07;;;;;;;3.03;1.02;;;12.60;99.90;;;;;;5069866;28;20237;-71
2020/12/03 12:46:33;;;;;;;5.72;2.13;;;12.80;99.90;;;;;;5065541;28;20202;-70
2020/12/03 12:49:00;;;;;;;3.05;2.50;;;12.70;99.90;;;;;;5075156;28;20686;-69
2020/12/03 12:51:26;;;;;;;2.38;1.08;;;12.70;99.90;;;;;;5072719;28;20206;-70
2020/12/03 12:53:53;;;;;;;2.20;1.38;;;12.70;99.90;;;;;;5072881;28;20218;-70
2020/12/03 12:56:20;;;;;;;1.93;1.10;;;12.70;99.90;;;;;;5062918;28;20276;-70
2020/12/03 12:58:47;;;;;;;2.77;1.77;;;12.60;99.90;;;;;;5063454;28;20235;-69
2020/12/03 13:01:13;;;;;;;3.40;1.37;;;12.80;99.90;;;;;;5063810;28;20282;-69
2020/12/03 13:03:39;;;;;;;2.47;1.50;;;12.90;99.90;;;;;;5059203;28;20203;-69
2020/12/03 13:06:06;;;;;;;2.40;0.90;;;13.20;99.90;;;;;;5072669;28;20758;-70
2020/12/03 13:08:32;;;;;;;6.10;1.40;;;13.30;99.90;;;;;;5072700;28;20582;-69
2020/12/03 13:11:00;;;;;;;2.92;1.17;;;13.20;99.90;;;;;;5072762;28;20282;-70
2020/12/03 13:13:29;;;;;;;1.40;1.02;;;12.90;99.90;;;;;;5063720;28;20260;-69
2020/12/03 13:15:55;;;;;;;2.90;1.50;;;12.80;99.90;;;;;;5065108;28;20221;-69
2020/12/03 13:18:22;;;;;;;1.55;1.17;;;12.70;99.90;;;;;;5071810;28;20279;-69